Hawk Run, PA (16840)

7:22 PM EDT on September 04, 2015 (GMT -0400)
South Philipsburg | | Change Station
CLOSE
Current Station
Personal Weather Station
Location: Philipsburg, PA
Elevation: 1444 ft
Nearby Weather Stations

Elev 1444 ft 40.89 °N, 78.22 °W | Updated 1 minute ago

Mostly Cloudy
Mostly Cloudy
74.0 °F
Feels Like 74 °F
N
0.0
Wind Variable Wind from SSE
Gusts 0.0 mph

Today
High -- | Low -- °F
--% Chance of Precip.
Yesterday
High -- | Low -- °F
Precip. -- in
6:42 AM 7:40 PM
Waning Gibbous, 55% visible
Pressure 30.12 in
Visibility 10.0 miles
Clouds Overcast 4600 ft
Heat Index 74 °F
Dew Point 69 °F
Humidity 84%
Rainfall 0.00 in
Snow Depth Not available.
UV 0 out of 12
Pollen 8.50 out of 12
Air Quality Not available.
Flu Activity Not available.
SPECI KFIG 042311Z AUTO 00000KT 10SM VCTS OVC046 26/19 A3012 RMK AO2 LTG DSNT NW TSE05 T02560189
Pressure 30.12 in
Visibility 10.0 miles
Clouds Overcast 4600 ft
Heat Index 74 °F
Dew Point 69 °F
Humidity 84%
Rainfall 0.00 in
Snow Depth Not available.
UV 0 out of 12
Pollen 8.50 out of 12
Air Quality Not available.
Flu Activity Not available.
SPECI KFIG 042311Z AUTO 00000KT 10SM VCTS OVC046 26/19 A3012 RMK AO2 LTG DSNT NW TSE05 T02560189

10-Day Weather Forecast

×

Almanac

Astronomy

Sep. 04, 2015 Rise Set
Actual Time
Civil Twilight
Nautical Twilight
Astronomical Twilight
Moon
Length of Visible Light
Length of Day
Tomorrow will be .
, % of the Moon is Illuminated

Today's Extremes

State Highs State Lows

Community

WunderPhotos

Upload Photos

1,852,332 photos uploaded!

WunderBlogs® & News

Nearby

Air Quality

  Air Quality AQ Index Pollutant
Not available.

Snow Depth

Station Depth Elevation

Earthquake Activity

City Distance Mag. Time & Date
Minimum magnitude displayed is 2.5.

Coastal Water Temperatures

Place Temperature

Stations

Nearby Weather Stations

Station Location Temp. Windchill Dew Point Humidity Wind Precip. Elev Updated Type